Time;durP1;ratioP1;P1;durP2;ratioP2;P2;SDS_P1;SDS_P2;PMS_P1;PMS_P2;Temp;Humidity;BMP_temperature;BMP_pressure;BME280_temperature;BME280_humidity;BME280_pressure;Samples;Min_cycle;Max_cycle;Signal;HPM_P1;HPM_P2
2023/12/06 00:00:11;;;;;;;1.48;1.38;;;6.80;99.90;;;;;;4954876;28;20022;-84
2023/12/06 00:02:36;;;;;;;2.67;1.50;;;6.80;99.90;;;;;;4972116;28;20031;-84
2023/12/06 00:05:02;;;;;;;1.50;1.40;;;6.80;99.90;;;;;;4955557;28;20256;-84
2023/12/06 00:07:27;;;;;;;2.13;1.60;;;6.80;99.90;;;;;;4953193;28;20023;-85
2023/12/06 00:09:53;;;;;;;2.90;1.67;;;6.80;99.90;;;;;;4966569;28;20015;-84
2023/12/06 00:12:19;;;;;;;1.77;1.45;;;6.80;99.90;;;;;;4967732;28;20543;-85
2023/12/06 00:14:44;;;;;;;1.95;1.50;;;6.80;99.90;;;;;;4956191;28;20051;-81
2023/12/06 00:17:10;;;;;;;2.42;1.70;;;6.80;99.90;;;;;;4951274;28;20027;-82
2023/12/06 00:19:36;;;;;;;1.60;1.40;;;6.80;99.90;;;;;;4949182;28;20081;-82
2023/12/06 00:22:02;;;;;;;2.00;1.70;;;6.80;99.90;;;;;;4966535;28;20027;-84
2023/12/06 00:24:27;;;;;;;5.35;1.95;;;6.80;99.90;;;;;;4957487;28;20043;-82
2023/12/06 00:26:53;;;;;;;2.40;1.83;;;6.80;99.90;;;;;;4952928;28;20023;-81
2023/12/06 00:29:18;;;;;;;3.65;1.50;;;6.80;99.90;;;;;;4966328;28;20121;-81
2023/12/06 00:31:44;;;;;;;2.53;1.42;;;6.80;99.90;;;;;;4957516;28;20027;-81
2023/12/06 00:34:09;;;;;;;4.32;1.70;;;6.80;99.90;;;;;;4970502;28;20429;-86
2023/12/06 00:36:35;;;;;;;1.88;1.52;;;6.80;99.90;;;;;;4975792;28;20366;-83
2023/12/06 00:39:01;;;;;;;3.05;1.65;;;6.80;99.90;;;;;;4955262;28;20023;-83
2023/12/06 00:41:26;;;;;;;2.03;1.80;;;6.80;99.90;;;;;;4962388;28;20057;-84
2023/12/06 00:43:53;;;;;;;1.65;1.38;;;6.80;99.90;;;;;;4969117;28;20040;-82
2023/12/06 00:46:19;;;;;;;1.95;1.58;;;6.80;99.90;;;;;;4967096;28;20106;-82
2023/12/06 00:48:45;;;;;;;2.83;1.80;;;6.80;99.90;;;;;;4957190;28;20109;-82
2023/12/06 00:51:10;;;;;;;2.50;1.90;;;6.80;99.90;;;;;;4961388;28;20417;-82
2023/12/06 00:53:36;;;;;;;5.28;1.77;;;6.80;99.90;;;;;;4957541;28;20035;-82
2023/12/06 00:56:01;;;;;;;2.38;2.03;;;6.80;99.90;;;;;;4956431;28;20082;-82
2023/12/06 00:58:27;;;;;;;2.58;1.85;;;6.80;99.90;;;;;;4955077;28;20023;-82
2023/12/06 01:00:52;;;;;;;2.35;1.95;;;6.80;99.90;;;;;;4964689;28;20122;-82
2023/12/06 01:03:18;;;;;;;2.55;1.40;;;6.80;99.90;;;;;;4959236;28;20051;-83
2023/12/06 01:05:43;;;;;;;2.08;1.60;;;6.80;99.90;;;;;;4971114;28;20023;-82
2023/12/06 01:08:09;;;;;;;2.15;1.70;;;6.80;99.90;;;;;;4952553;28;20480;-82
2023/12/06 01:10:35;;;;;;;2.50;1.65;;;6.80;99.90;;;;;;4966342;28;20019;-82
2023/12/06 01:13:00;;;;;;;1.90;1.70;;;6.80;99.90;;;;;;4971839;28;20429;-82
2023/12/06 01:15:26;;;;;;;2.90;1.58;;;6.80;99.90;;;;;;4977529;28;20493;-83
2023/12/06 01:17:52;;;;;;;1.55;1.45;;;6.80;99.90;;;;;;4972288;28;20134;-82
2023/12/06 01:20:17;;;;;;;2.35;1.70;;;6.80;99.90;;;;;;4958150;28;20082;-82
2023/12/06 01:22:43;;;;;;;1.92;1.70;;;6.80;99.90;;;;;;4954316;28;20032;-82
2023/12/06 01:25:09;;;;;;;1.88;1.55;;;6.80;99.90;;;;;;4967751;28;20058;-81
2023/12/06 01:27:37;;;;;;;2.05;1.75;;;6.80;99.90;;;;;;4957388;28;20043;-82
2023/12/06 01:30:04;;;;;;;1.85;1.60;;;6.80;99.90;;;;;;4956673;28;20074;-82
2023/12/06 01:32:30;;;;;;;2.00;1.52;;;6.80;99.90;;;;;;4972567;28;20033;-82
2023/12/06 01:34:55;;;;;;;1.63;1.52;;;6.80;99.90;;;;;;4953360;28;20031;-83
2023/12/06 01:37:21;;;;;;;1.48;1.38;;;6.80;99.90;;;;;;4954983;28;20031;-82
2023/12/06 01:39:46;;;;;;;1.63;1.38;;;6.80;99.90;;;;;;4959086;28;20023;-83
2023/12/06 01:42:12;;;;;;;1.70;1.60;;;6.80;99.90;;;;;;4954472;28;20102;-83
2023/12/06 01:44:37;;;;;;;2.03;1.83;;;6.80;99.90;;;;;;4954621;28;20054;-84
2023/12/06 01:47:05;;;;;;;2.40;1.88;;;6.80;99.90;;;;;;4954515;28;20106;-85
2023/12/06 01:49:31;;;;;;;4.45;2.05;;;6.80;99.90;;;;;;4955188;28;20109;-84
2023/12/06 01:51:57;;;;;;;2.05;1.85;;;6.80;99.90;;;;;;4974422;28;20393;-86
2023/12/06 01:54:23;;;;;;;3.05;2.00;;;6.80;99.90;;;;;;4958341;28;20016;-82
2023/12/06 01:56:48;;;;;;;2.20;1.73;;;6.80;99.90;;;;;;4952747;28;20039;-84
2023/12/06 01:59:14;;;;;;;2.00;1.80;;;6.80;99.90;;;;;;4955423;28;20543;-84
2023/12/06 02:01:40;;;;;;;2.08;1.73;;;6.80;99.90;;;;;;4967444;28;20024;-85
2023/12/06 02:04:06;;;;;;;2.05;1.88;;;6.80;99.90;;;;;;4973559;28;20031;-83
2023/12/06 02:06:32;;;;;;;2.72;2.00;;;6.80;99.90;;;;;;4974634;28;20133;-82
2023/12/06 02:08:59;;;;;;;2.33;1.98;;;6.80;99.90;;;;;;4954396;28;20031;-82
2023/12/06 02:11:25;;;;;;;1.70;1.60;;;6.80;99.90;;;;;;4969906;28;20405;-82
2023/12/06 02:13:50;;;;;;;1.70;1.60;;;6.80;99.90;;;;;;4967289;28;20023;-82
2023/12/06 02:16:16;;;;;;;1.80;1.58;;;6.80;99.90;;;;;;4974268;28;20023;-83
2023/12/06 02:18:42;;;;;;;3.10;1.95;;;6.80;99.90;;;;;;4955908;28;20513;-81
2023/12/06 02:21:08;;;;;;;2.33;1.95;;;6.80;99.90;;;;;;4951003;29;20023;-82
2023/12/06 02:23:40;;;;;;;2.28;2.08;;;6.80;99.90;;;;;;4967941;28;20524;-82
2023/12/06 02:26:06;;;;;;;2.08;1.88;;;6.80;99.90;;;;;;4964048;28;20498;-83
2023/12/06 02:28:31;;;;;;;2.35;2.08;;;6.80;99.90;;;;;;4975587;28;20050;-81
2023/12/06 02:30:57;;;;;;;1.85;1.70;;;6.80;99.90;;;;;;4955232;28;20560;-82
2023/12/06 02:33:25;;;;;;;2.60;2.05;;;6.80;99.90;;;;;;4969883;28;20020;-83
2023/12/06 02:35:56;;;;;;;3.33;1.92;;;6.80;99.90;;;;;;4952239;28;20030;-82
2023/12/06 02:38:22;;;;;;;2.67;1.95;;;6.80;99.90;;;;;;4951860;28;20143;-83
2023/12/06 02:40:50;;;;;;;2.88;2.13;;;6.80;99.90;;;;;;4959779;28;20485;-82
2023/12/06 02:43:16;;;;;;;3.53;2.88;;;6.80;99.90;;;;;;4955730;28;20126;-82
2023/12/06 02:45:43;;;;;;;3.08;2.22;;;6.80;99.90;;;;;;4957106;28;20392;-82
2023/12/06 02:48:08;;;;;;;5.28;2.10;;;6.80;99.90;;;;;;4967613;28;20401;-82
2023/12/06 02:50:34;;;;;;;3.63;2.45;;;6.80;99.90;;;;;;4972835;28;20019;-82
2023/12/06 02:53:00;;;;;;;2.58;2.08;;;6.80;99.90;;;;;;4956267;28;20051;-83
2023/12/06 02:55:25;;;;;;;2.10;1.90;;;6.80;99.90;;;;;;4955534;28;20027;-82
2023/12/06 02:57:51;;;;;;;2.95;2.10;;;6.80;99.90;;;;;;4955110;28;20039;-81
2023/12/06 03:00:17;;;;;;;2.42;2.08;;;6.80;99.90;;;;;;4952031;28;20027;-82
2023/12/06 03:02:42;;;;;;;3.05;2.25;;;6.80;99.90;;;;;;4949815;28;20046;-82
2023/12/06 03:05:08;;;;;;;2.67;1.90;;;6.80;99.90;;;;;;4953524;28;20081;-82
2023/12/06 03:07:33;;;;;;;3.05;2.08;;;6.80;99.90;;;;;;4973376;28;20118;-82
2023/12/06 03:10:00;;;;;;;3.88;2.22;;;6.80;99.90;;;;;;4965184;28;20493;-82
2023/12/06 03:12:25;;;;;;;3.90;2.40;;;6.80;99.90;;;;;;4969021;28;20085;-83
2023/12/06 03:14:51;;;;;;;6.88;2.95;;;6.80;99.90;;;;;;4966502;28;20481;-82
2023/12/06 03:17:16;;;;;;;3.00;2.15;;;6.80;99.90;;;;;;4965073;28;20027;-82
2023/12/06 03:19:42;;;;;;;2.50;2.10;;;6.80;99.90;;;;;;4954805;28;20520;-82
2023/12/06 03:22:08;;;;;;;3.15;2.40;;;6.80;99.90;;;;;;4953210;28;20525;-81
2023/12/06 03:24:33;;;;;;;5.95;2.20;;;6.80;99.90;;;;;;4953966;28;20031;-82
2023/12/06 03:26:59;;;;;;;2.03;1.92;;;6.80;99.90;;;;;;4951488;28;20039;-82
2023/12/06 03:29:24;;;;;;;2.45;2.00;;;6.80;99.90;;;;;;4953414;28;20418;-82
2023/12/06 03:31:50;;;;;;;2.20;2.00;;;6.90;99.90;;;;;;4971255;28;20496;-82
2023/12/06 03:34:15;;;;;;;3.97;1.92;;;6.80;99.90;;;;;;4953665;28;20027;-82
2023/12/06 03:36:41;;;;;;;2.15;1.65;;;6.90;99.90;;;;;;4954271;28;20015;-82
2023/12/06 03:39:06;;;;;;;2.15;1.95;;;6.80;99.90;;;;;;4966378;28;20110;-82
2023/12/06 03:41:32;;;;;;;2.28;2.00;;;6.80;99.90;;;;;;4973922;28;20159;-81
2023/12/06 03:43:57;;;;;;;2.92;2.35;;;6.80;99.90;;;;;;4955695;28;20118;-82
2023/12/06 03:46:23;;;;;;;2.15;1.90;;;6.80;99.90;;;;;;4954397;28;20102;-82
2023/12/06 03:48:48;;;;;;;3.25;2.40;;;6.80;99.90;;;;;;4954026;28;20023;-81
2023/12/06 03:51:14;;;;;;;3.53;2.20;;;6.80;99.90;;;;;;4947642;28;20106;-81
2023/12/06 03:53:39;;;;;;;3.58;2.75;;;6.80;99.90;;;;;;4970614;28;20764;-82
2023/12/06 03:56:05;;;;;;;2.42;2.20;;;6.80;99.90;;;;;;4956683;28;20038;-82
2023/12/06 03:58:31;;;;;;;3.15;2.40;;;6.80;99.90;;;;;;4972426;28;20110;-82
2023/12/06 04:00:57;;;;;;;3.75;2.40;;;6.80;99.90;;;;;;4951511;28;20032;-81
2023/12/06 04:03:22;;;;;;;3.10;2.05;;;6.80;99.90;;;;;;4966608;28;20024;-81
2023/12/06 04:05:48;;;;;;;2.88;2.40;;;6.80;99.90;;;;;;4971268;28;20019;-81
2023/12/06 04:08:13;;;;;;;2.72;2.05;;;6.80;99.90;;;;;;4971883;28;20553;-82
2023/12/06 04:10:39;;;;;;;6.57;2.42;;;6.80;99.90;;;;;;4970525;28;20111;-83
2023/12/06 04:13:05;;;;;;;3.58;2.30;;;6.80;99.90;;;;;;4958499;28;20517;-82
2023/12/06 04:15:31;;;;;;;2.85;2.22;;;6.80;99.90;;;;;;4955098;28;20023;-82
2023/12/06 04:17:57;;;;;;;4.70;1.92;;;6.80;99.90;;;;;;4957152;28;20031;-82
2023/12/06 04:20:23;;;;;;;2.55;1.95;;;6.80;99.90;;;;;;4974846;28;20074;-82
2023/12/06 04:22:49;;;;;;;4.10;2.05;;;6.80;99.90;;;;;;4958555;28;20031;-82
2023/12/06 04:25:15;;;;;;;1.70;1.60;;;6.80;99.90;;;;;;4956055;28;20016;-82
2023/12/06 04:27:41;;;;;;;4.68;2.60;;;6.80;99.90;;;;;;4972838;28;20106;-82
2023/12/06 04:30:09;;;;;;;2.97;2.42;;;6.80;99.90;;;;;;4955456;28;20023;-81
2023/12/06 04:32:35;;;;;;;2.75;2.40;;;6.80;99.90;;;;;;4975382;28;20731;-82
2023/12/06 04:35:00;;;;;;;3.53;2.60;;;6.80;99.90;;;;;;4974142;28;20051;-82
2023/12/06 04:37:26;;;;;;;3.05;2.35;;;6.80;99.90;;;;;;4971652;28;20078;-81
2023/12/06 04:39:52;;;;;;;7.50;2.28;;;6.80;99.90;;;;;;4955739;28;20027;-82
2023/12/06 04:42:18;;;;;;;3.85;2.28;;;6.80;99.90;;;;;;4952687;28;20035;-82
2023/12/06 04:44:43;;;;;;;3.08;2.30;;;6.90;99.90;;;;;;4962730;28;20023;-82
2023/12/06 04:47:09;;;;;;;3.35;2.20;;;6.80;99.90;;;;;;4957651;28;20514;-82
2023/12/06 04:49:34;;;;;;;6.35;2.38;;;6.80;99.90;;;;;;4973273;28;20034;-82
2023/12/06 04:52:00;;;;;;;2.55;2.10;;;6.80;99.90;;;;;;4970093;28;20023;-83
2023/12/06 04:54:27;;;;;;;2.15;1.95;;;6.80;99.90;;;;;;4974342;28;20031;-82
2023/12/06 04:56:52;;;;;;;4.97;2.45;;;6.80;99.90;;;;;;4960819;28;20022;-84
2023/12/06 04:59:18;;;;;;;3.08;2.17;;;6.80;99.90;;;;;;4958292;28;20062;-82
2023/12/06 05:01:43;;;;;;;2.83;2.03;;;6.80;99.90;;;;;;4971716;28;20089;-82
2023/12/06 05:04:09;;;;;;;2.42;1.92;;;6.80;99.90;;;;;;4967949;28;20023;-84
2023/12/06 05:06:35;;;;;;;2.55;1.75;;;6.80;99.90;;;;;;4967979;28;20023;-86
2023/12/06 05:09:01;;;;;;;3.08;2.25;;;6.80;99.90;;;;;;4966422;28;20110;-84
2023/12/06 05:11:26;;;;;;;2.53;1.98;;;6.80;99.90;;;;;;4952983;28;20481;-83
2023/12/06 05:13:52;;;;;;;2.63;1.95;;;6.90;99.90;;;;;;4954835;28;20401;-83
2023/12/06 05:16:18;;;;;;;2.80;1.90;;;6.90;99.90;;;;;;4952193;28;20110;-82
2023/12/06 05:18:43;;;;;;;2.85;2.28;;;6.80;99.90;;;;;;4970265;28;20031;-82
2023/12/06 05:21:09;;;;;;;3.08;2.00;;;6.80;99.90;;;;;;4957156;28;20031;-82
2023/12/06 05:23:35;;;;;;;2.80;2.22;;;6.80;99.90;;;;;;4972432;28;20034;-83
2023/12/06 05:26:00;;;;;;;3.00;2.17;;;6.80;99.90;;;;;;4954153;28;20021;-85
2023/12/06 05:28:26;;;;;;;4.45;2.13;;;6.80;99.90;;;;;;4955379;28;20394;-84
2023/12/06 05:30:52;;;;;;;2.72;1.80;;;6.80;99.90;;;;;;4968139;28;20028;-84
2023/12/06 05:33:18;;;;;;;2.60;2.40;;;6.90;99.90;;;;;;4949898;28;20016;-82
2023/12/06 05:35:45;;;;;;;4.32;2.63;;;6.80;99.90;;;;;;4956648;28;20024;-82
2023/12/06 05:38:11;;;;;;;3.80;2.58;;;6.80;99.90;;;;;;4955853;28;20059;-82
2023/12/06 05:40:36;;;;;;;2.30;1.92;;;6.90;99.90;;;;;;4968836;28;20038;-81
2023/12/06 05:43:02;;;;;;;3.83;2.20;;;6.90;99.90;;;;;;4967664;28;20031;-82
2023/12/06 05:45:27;;;;;;;3.03;2.40;;;6.80;99.90;;;;;;4966355;28;20050;-82
2023/12/06 05:47:53;;;;;;;2.30;2.03;;;6.80;99.90;;;;;;4958245;28;20030;-82
2023/12/06 05:50:19;;;;;;;2.38;2.00;;;6.90;99.90;;;;;;4956363;28;20019;-81
2023/12/06 05:52:44;;;;;;;3.42;2.28;;;6.80;99.90;;;;;;4970376;28;20023;-81
2023/12/06 05:55:10;;;;;;;4.82;2.00;;;6.90;99.90;;;;;;4967706;28;20038;-82
2023/12/06 05:57:35;;;;;;;2.33;1.75;;;6.90;99.90;;;;;;4969240;28;20090;-81
2023/12/06 06:00:01;;;;;;;3.03;2.30;;;6.90;99.90;;;;;;4954621;28;20026;-81
2023/12/06 06:02:27;;;;;;;3.38;2.53;;;6.90;99.90;;;;;;4970927;28;20034;-82
2023/12/06 06:04:52;;;;;;;4.03;1.80;;;6.90;99.90;;;;;;4953379;28;20015;-83
2023/12/06 06:07:18;;;;;;;2.72;1.98;;;6.90;99.90;;;;;;4952549;28;20035;-83
2023/12/06 06:09:44;;;;;;;3.33;2.30;;;6.80;99.90;;;;;;4956445;28;20023;-82
2023/12/06 06:12:10;;;;;;;2.38;2.05;;;6.90;99.90;;;;;;4948592;28;20053;-82
2023/12/06 06:14:35;;;;;;;3.28;1.85;;;6.90;99.90;;;;;;4955448;28;20077;-83
2023/12/06 06:17:01;;;;;;;3.03;1.77;;;6.90;99.90;;;;;;4969941;28;20409;-82
2023/12/06 06:19:26;;;;;;;2.50;1.90;;;6.80;99.90;;;;;;4952873;28;20035;-82
2023/12/06 06:21:52;;;;;;;2.05;1.70;;;6.90;99.90;;;;;;4958690;28;20043;-82
2023/12/06 06:24:17;;;;;;;2.00;1.77;;;6.90;99.90;;;;;;4949881;28;20031;-82
2023/12/06 06:26:43;;;;;;;2.20;1.92;;;6.90;99.90;;;;;;4969734;28;20500;-82
2023/12/06 06:29:09;;;;;;;3.30;1.80;;;6.90;99.90;;;;;;4967962;28;20243;-84
2023/12/06 06:31:34;;;;;;;2.05;1.85;;;6.90;99.90;;;;;;4964691;28;20505;-81
2023/12/06 06:34:02;;;;;;;2.78;1.73;;;6.90;99.90;;;;;;4956764;28;20481;-82
2023/12/06 06:36:28;;;;;;;2.50;1.80;;;6.90;99.90;;;;;;4968575;28;20023;-82
2023/12/06 06:38:55;;;;;;;1.67;1.58;;;6.90;99.90;;;;;;4955441;28;20031;-82
2023/12/06 06:41:21;;;;;;;2.47;1.65;;;6.90;99.90;;;;;;4952734;28;20023;-82
2023/12/06 06:43:46;;;;;;;2.05;1.90;;;6.90;99.90;;;;;;4949613;28;20106;-82
2023/12/06 06:46:12;;;;;;;2.63;2.05;;;6.80;99.90;;;;;;4956310;28;20078;-82
2023/12/06 06:48:38;;;;;;;5.05;1.73;;;6.90;99.90;;;;;;4967641;28;20027;-82
2023/12/06 06:51:04;;;;;;;3.15;2.08;;;6.90;99.90;;;;;;4972457;28;20019;-84
2023/12/06 06:53:29;;;;;;;3.00;2.00;;;6.90;99.90;;;;;;4953050;28;20489;-82
2023/12/06 06:55:55;;;;;;;4.32;1.90;;;6.90;99.90;;;;;;4966771;28;20039;-82
2023/12/06 06:58:20;;;;;;;3.10;1.77;;;6.80;99.90;;;;;;4970541;28;20023;-82
2023/12/06 07:00:46;;;;;;;3.40;1.92;;;6.80;99.90;;;;;;4950952;28;20028;-83
2023/12/06 07:03:11;;;;;;;3.95;1.80;;;6.80;99.90;;;;;;4966097;28;20027;-83
2023/12/06 07:05:37;;;;;;;2.15;1.55;;;6.90;99.90;;;;;;4952675;28;20031;-81
2023/12/06 07:08:03;;;;;;;4.95;2.10;;;6.90;99.90;;;;;;4969416;28;20478;-83
2023/12/06 07:10:29;;;;;;;4.20;2.03;;;6.80;99.90;;;;;;4947586;29;20103;-83
2023/12/06 07:12:54;;;;;;;15.95;1.25;;;6.80;99.90;;;;;;4946232;29;20059;-80
2023/12/06 07:15:20;;;;;;;1.65;1.00;;;9.50;99.90;;;;;;4947254;28;20051;-81
2023/12/06 07:17:46;;;;;;;2.35;1.17;;;8.40;99.90;;;;;;4949309;29;20146;-82
2023/12/06 07:20:13;;;;;;;1.85;1.52;;;7.60;99.90;;;;;;4961475;28;20027;-81
2023/12/06 07:22:39;;;;;;;6.05;2.17;;;7.30;99.90;;;;;;4947561;28;20035;-81
2023/12/06 07:25:05;;;;;;;6.68;2.03;;;7.10;99.90;;;;;;4942923;29;20028;-82
2023/12/06 07:27:31;;;;;;;2.33;1.83;;;7.10;99.90;;;;;;4942080;29;20512;-81
2023/12/06 07:29:57;;;;;;;3.78;2.30;;;7.00;99.90;;;;;;4948060;28;20027;-82
2023/12/06 07:32:22;;;;;;;1.98;1.67;;;7.00;99.90;;;;;;4964669;28;20023;-83
2023/12/06 07:34:48;;;;;;;5.78;2.10;;;6.90;99.90;;;;;;4943229;28;20582;-80
2023/12/06 07:37:13;;;;;;;3.03;1.90;;;6.90;99.90;;;;;;4960774;28;20031;-82
2023/12/06 07:39:39;;;;;;;1.77;1.65;;;6.90;99.90;;;;;;4958083;28;20114;-80
2023/12/06 07:42:04;;;;;;;2.67;1.90;;;6.90;99.90;;;;;;4963105;28;20525;-82
2023/12/06 07:44:30;;;;;;;2.10;1.85;;;6.90;99.90;;;;;;4944254;28;20023;-82
2023/12/06 07:46:55;;;;;;;2.58;2.13;;;6.90;99.90;;;;;;4964662;28;20126;-82
2023/12/06 07:49:21;;;;;;;2.13;1.80;;;6.90;99.90;;;;;;4950523;28;20027;-82
2023/12/06 07:51:46;;;;;;;4.05;2.47;;;6.90;99.90;;;;;;4962378;28;20043;-81
2023/12/06 07:54:12;;;;;;;2.47;2.00;;;6.90;99.90;;;;;;4967111;28;20026;-82
2023/12/06 07:56:37;;;;;;;1.88;1.73;;;6.90;99.90;;;;;;4949127;28;20144;-81
2023/12/06 07:59:03;;;;;;;2.40;2.05;;;6.90;99.90;;;;;;4947901;29;20106;-83
2023/12/06 08:01:31;;;;;;;2.38;2.05;;;6.90;99.90;;;;;;4946508;28;20024;-81
2023/12/06 08:03:57;;;;;;;2.72;2.25;;;6.90;99.90;;;;;;4950835;28;20059;-82
2023/12/06 08:06:23;;;;;;;2.92;1.95;;;6.90;99.90;;;;;;4950355;28;20031;-81
2023/12/06 08:08:50;;;;;;;2.58;2.15;;;6.90;99.90;;;;;;4965469;28;20202;-81
2023/12/06 08:11:17;;;;;;;2.72;2.20;;;6.90;99.90;;;;;;4965443;28;20030;-83
2023/12/06 08:13:42;;;;;;;3.03;1.88;;;6.90;99.90;;;;;;4948588;28;20560;-81
2023/12/06 08:16:08;;;;;;;3.00;2.40;;;6.90;99.90;;;;;;4954255;28;20023;-83
2023/12/06 08:18:34;;;;;;;3.22;2.30;;;6.90;99.90;;;;;;4949654;28;20489;-83
2023/12/06 08:20:59;;;;;;;2.55;2.22;;;6.90;99.90;;;;;;4964946;28;20494;-82
2023/12/06 08:23:25;;;;;;;3.67;2.30;;;6.90;99.90;;;;;;4950162;28;20405;-83
2023/12/06 08:25:50;;;;;;;3.95;2.28;;;6.90;99.90;;;;;;4966258;28;20085;-82
2023/12/06 08:28:19;;;;;;;4.00;2.00;;;6.90;99.90;;;;;;4950667;28;20088;-83
2023/12/06 08:30:45;;;;;;;4.00;2.17;;;6.90;99.90;;;;;;4949121;28;20177;-82
2023/12/06 08:33:13;;;;;;;4.25;2.63;;;6.90;99.90;;;;;;4962933;28;20127;-83
2023/12/06 08:35:39;;;;;;;3.35;2.10;;;6.90;99.90;;;;;;4950590;28;20019;-83
2023/12/06 08:38:05;;;;;;;2.53;2.17;;;6.90;99.90;;;;;;4949531;28;20092;-83
2023/12/06 08:40:31;;;;;;;2.95;1.80;;;6.90;99.90;;;;;;4942664;29;20055;-82
2023/12/06 08:42:57;;;;;;;3.10;2.13;;;6.90;99.90;;;;;;4945299;28;20542;-82
2023/12/06 08:45:23;;;;;;;8.45;2.17;;;6.90;99.90;;;;;;4961616;28;20512;-83
2023/12/06 08:47:48;;;;;;;3.70;2.20;;;6.90;99.90;;;;;;4964677;28;20027;-82
2023/12/06 08:50:14;;;;;;;2.58;2.03;;;6.90;99.90;;;;;;4953054;28;20409;-82
2023/12/06 08:52:42;;;;;;;3.65;2.38;;;6.90;99.90;;;;;;4964738;28;20612;-82
2023/12/06 08:55:08;;;;;;;3.05;2.60;;;6.90;99.90;;;;;;4949159;29;20062;-82
2023/12/06 08:57:34;;;;;;;6.45;2.78;;;6.90;99.90;;;;;;4952879;28;20072;-83
2023/12/06 08:59:59;;;;;;;2.70;2.45;;;7.00;99.90;;;;;;4953719;28;20035;-82
2023/12/06 09:02:25;;;;;;;3.28;2.65;;;6.90;99.90;;;;;;4951207;28;20023;-82
2023/12/06 09:04:51;;;;;;;4.05;2.63;;;7.00;99.90;;;;;;4952776;28;20764;-82
2023/12/06 09:07:17;;;;;;;3.40;2.83;;;7.00;99.90;;;;;;4952541;28;20019;-82
2023/12/06 09:09:45;;;;;;;5.35;2.83;;;7.00;99.90;;;;;;4948724;28;20672;-83
2023/12/06 09:12:11;;;;;;;3.92;2.40;;;7.00;99.90;;;;;;4953875;28;20030;-83
2023/12/06 09:14:36;;;;;;;4.50;2.83;;;6.90;99.90;;;;;;4968270;28;20569;-82
2023/12/06 09:17:02;;;;;;;2.50;2.30;;;6.90;99.90;;;;;;4951623;28;20035;-83
2023/12/06 09:19:28;;;;;;;5.07;2.58;;;7.00;99.90;;;;;;4946489;28;20071;-82
2023/12/06 09:21:54;;;;;;;3.42;2.45;;;7.00;99.90;;;;;;4949394;28;20039;-83
2023/12/06 09:24:20;;;;;;;7.78;2.53;;;7.00;99.90;;;;;;4967130;28;20027;-83
2023/12/06 09:26:45;;;;;;;3.72;2.20;;;7.00;99.90;;;;;;4968349;28;20037;-83
2023/12/06 09:29:11;;;;;;;4.40;2.08;;;7.00;99.90;;;;;;4952532;28;20408;-83
2023/12/06 09:31:38;;;;;;;6.55;2.90;;;6.90;99.90;;;;;;4967229;28;20044;-82
2023/12/06 09:34:04;;;;;;;4.60;2.75;;;7.00;99.90;;;;;;4950688;28;20027;-82
2023/12/06 09:36:30;;;;;;;2.85;2.05;;;6.90;99.90;;;;;;4950637;28;20633;-83
2023/12/06 09:39:00;;;;;;;5.50;2.28;;;7.00;99.90;;;;;;4951926;28;20106;-82
2023/12/06 09:41:30;;;;;;;3.00;2.03;;;7.00;99.90;;;;;;4951891;28;20556;-83
2023/12/06 09:43:56;;;;;;;3.78;2.53;;;6.90;99.90;;;;;;4946980;28;20148;-83
2023/12/06 09:46:23;;;;;;;3.05;2.40;;;7.00;99.90;;;;;;4951468;28;20399;-82
2023/12/06 09:48:49;;;;;;;3.60;2.22;;;7.00;99.90;;;;;;4965748;28;20027;-82
2023/12/06 09:51:19;;;;;;;4.25;2.67;;;7.00;99.90;;;;;;4948004;29;20026;-83
2023/12/06 09:53:44;;;;;;;;;;;7.00;99.90;;;;;;4963801;28;20059;-82
2023/12/06 09:56:10;;;;;;;3.63;2.13;;;7.00;99.90;;;;;;4965265;28;19950;-82
2023/12/06 09:58:36;;;;;;;3.75;2.40;;;7.00;99.90;;;;;;4950415;28;20430;-82
2023/12/06 10:01:03;;;;;;;3.83;2.42;;;7.00;99.90;;;;;;4952282;28;20023;-83
2023/12/06 10:03:28;;;;;;;3.95;2.42;;;7.00;99.90;;;;;;4964988;28;20031;-82
2023/12/06 10:05:56;;;;;;;5.75;2.85;;;7.00;99.90;;;;;;4949300;28;20522;-83
2023/12/06 10:08:21;;;;;;;3.60;2.25;;;7.00;99.90;;;;;;4963060;28;20029;-82
2023/12/06 10:10:48;;;;;;;6.10;2.63;;;7.00;99.90;;;;;;4951823;28;20031;-83
2023/12/06 10:13:13;;;;;;;3.75;2.47;;;7.00;99.90;;;;;;4966660;28;20737;-82
2023/12/06 10:15:39;;;;;;;4.15;2.58;;;7.00;99.90;;;;;;4949775;28;20050;-82
2023/12/06 10:18:05;;;;;;;3.45;2.55;;;7.00;99.90;;;;;;4950929;28;20625;-83
2023/12/06 10:20:31;;;;;;;4.72;2.75;;;7.00;99.90;;;;;;4962521;28;20122;-83
2023/12/06 10:22:56;;;;;;;4.53;2.80;;;7.10;99.90;;;;;;4962351;28;20033;-84
2023/12/06 10:25:22;;;;;;;8.38;3.25;;;7.10;99.90;;;;;;4949666;28;20493;-82
2023/12/06 10:27:48;;;;;;;6.38;3.05;;;7.10;99.90;;;;;;4966322;28;20509;-82
2023/12/06 10:30:20;;;;;;;5.45;3.10;;;7.10;99.90;;;;;;4963250;28;20035;-84
2023/12/06 10:32:46;;;;;;;7.22;3.58;;;7.10;99.90;;;;;;4946935;28;20438;-83
2023/12/06 10:35:12;;;;;;;4.15;2.83;;;7.10;99.90;;;;;;4950460;28;20039;-83
2023/12/06 10:37:40;;;;;;;7.22;3.53;;;7.10;99.90;;;;;;4948742;28;20057;-82
2023/12/06 10:40:09;;;;;;;5.03;2.97;;;7.10;99.90;;;;;;4951053;28;20120;-83
2023/12/06 10:42:36;;;;;;;6.85;2.97;;;7.10;99.90;;;;;;4948254;28;20023;-83
2023/12/06 10:45:03;;;;;;;6.05;3.28;;;7.10;99.90;;;;;;4947401;28;20015;-81
2023/12/06 10:47:30;;;;;;;4.50;2.90;;;7.10;99.90;;;;;;4947605;29;20127;-83
2023/12/06 10:49:57;;;;;;;6.50;2.63;;;7.10;99.90;;;;;;4945886;28;20034;-83
2023/12/06 10:52:23;;;;;;;4.88;2.45;;;7.10;99.90;;;;;;4950034;28;20110;-82
2023/12/06 10:54:50;;;;;;;3.85;2.38;;;7.10;99.90;;;;;;4972140;28;20058;-82
2023/12/06 10:57:17;;;;;;;3.97;2.45;;;7.10;99.90;;;;;;4957360;28;20548;-82
2023/12/06 10:59:45;;;;;;;4.55;2.63;;;7.10;99.90;;;;;;4957326;28;20110;-81
2023/12/06 11:02:12;;;;;;;7.00;2.83;;;7.10;99.90;;;;;;4967385;28;20404;-82
2023/12/06 11:04:45;;;;;;;3.08;2.17;;;7.10;99.90;;;;;;4965582;28;20058;-82
2023/12/06 11:07:21;;;;;;;4.90;2.55;;;7.10;99.90;;;;;;4953891;28;20026;-82
2023/12/06 11:09:53;;;;;;;3.88;2.33;;;7.10;99.90;;;;;;4951795;28;20039;-82
2023/12/06 11:12:46;;;;;;;2.53;1.83;;;7.10;99.90;;;;;;4948496;28;20015;-83
2023/12/06 11:15:18;;;;;;;3.58;1.95;;;7.10;99.90;;;;;;4961891;28;20382;-82
2023/12/06 11:18:08;;;;;;;2.13;1.67;;;7.10;99.90;;;;;;4962315;28;20394;-82
2023/12/06 11:20:33;;;;;;;3.30;2.22;;;7.10;99.90;;;;;;4962642;28;20120;-82
2023/12/06 11:22:59;;;;;;;2.28;1.83;;;7.10;99.90;;;;;;4949166;28;20047;-83
2023/12/06 11:25:25;;;;;;;2.33;1.60;;;7.10;99.90;;;;;;4949241;28;20481;-84
2023/12/06 11:27:53;;;;;;;2.85;1.60;;;7.10;99.90;;;;;;4948389;28;20019;-82
2023/12/06 11:30:19;;;;;;;2.72;1.90;;;7.10;99.90;;;;;;4947774;28;20031;-82
2023/12/06 11:32:46;;;;;;;1.65;1.40;;;7.10;99.90;;;;;;4944800;28;20581;-82
2023/12/06 11:35:13;;;;;;;2.30;1.65;;;7.10;99.90;;;;;;4950700;28;20027;-83
2023/12/06 11:37:38;;;;;;;1.92;1.42;;;7.10;99.90;;;;;;4948012;28;20051;-82
2023/12/06 11:40:18;;;;;;;2.83;1.48;;;7.10;99.90;;;;;;4962631;28;20023;-82
2023/12/06 11:43:00;;;;;;;4.15;1.85;;;7.10;99.90;;;;;;4946403;28;20035;-81
2023/12/06 11:45:36;;;;;;;3.20;1.92;;;7.10;99.90;;;;;;4948594;28;20019;-83
2023/12/06 11:48:05;;;;;;;2.40;1.40;;;7.10;99.90;;;;;;4946296;29;20687;-82
2023/12/06 11:50:49;;;;;;;3.10;2.03;;;7.10;99.90;;;;;;4947754;28;20034;-81
2023/12/06 11:53:16;;;;;;;2.20;1.70;;;7.10;99.90;;;;;;4965233;28;20110;-82
2023/12/06 11:55:42;;;;;;;4.97;1.98;;;7.10;99.90;;;;;;4947449;28;20134;-86
2023/12/06 11:58:12;;;;;;;2.53;1.90;;;7.10;99.90;;;;;;4950444;28;20050;-82
2023/12/06 12:00:45;;;;;;;2.38;1.75;;;7.10;99.90;;;;;;4942902;28;20051;-81
2023/12/06 12:03:11;;;;;;;2.20;1.98;;;7.10;99.90;;;;;;4946441;28;20035;-81
2023/12/06 12:05:46;;;;;;;3.22;1.90;;;7.10;99.90;;;;;;4947860;28;20031;-81
2023/12/06 12:08:13;;;;;;;3.88;2.05;;;7.10;99.90;;;;;;4949008;28;20034;-82
2023/12/06 12:10:40;;;;;;;3.08;1.95;;;7.10;99.90;;;;;;4945648;28;20027;-82
2023/12/06 12:13:15;;;;;;;4.07;2.13;;;7.10;99.90;;;;;;4946156;28;20035;-83
2023/12/06 12:15:48;;;;;;;2.55;1.88;;;7.10;99.90;;;;;;4945308;28;20027;-81
2023/12/06 12:18:13;;;;;;;2.30;1.70;;;7.10;99.90;;;;;;4963721;28;20102;-82
2023/12/06 12:20:39;;;;;;;4.20;2.20;;;7.10;99.90;;;;;;4945643;29;20489;-82
2023/12/06 12:23:04;;;;;;;3.03;2.05;;;7.10;99.90;;;;;;4947071;28;20122;-82
2023/12/06 12:25:30;;;;;;;3.65;2.30;;;7.10;99.90;;;;;;4964541;28;20611;-82
2023/12/06 12:27:55;;;;;;;2.13;1.92;;;7.10;99.90;;;;;;4950219;28;20035;-82
2023/12/06 12:30:21;;;;;;;3.25;2.28;;;7.10;99.90;;;;;;4951362;28;20024;-83
2023/12/06 12:32:52;;;;;;;3.95;2.28;;;7.10;99.90;;;;;;4965426;28;20042;-82
2023/12/06 12:35:19;;;;;;;3.22;2.28;;;7.10;99.90;;;;;;4952007;28;20073;-81
2023/12/06 12:37:46;;;;;;;4.60;2.38;;;7.10;99.90;;;;;;4964619;28;20039;-82
2023/12/06 12:40:13;;;;;;;3.15;2.17;;;7.10;99.90;;;;;;4949677;28;20606;-82
2023/12/06 12:42:42;;;;;;;3.80;2.83;;;7.10;99.90;;;;;;4951314;28;20035;-82
2023/12/06 12:45:15;;;;;;;3.45;2.00;;;7.10;99.90;;;;;;4952794;28;20031;-83
2023/12/06 12:47:40;;;;;;;4.50;2.67;;;7.10;99.90;;;;;;4952114;28;20101;-83
2023/12/06 12:50:10;;;;;;;4.03;2.45;;;7.10;99.90;;;;;;4971828;28;20441;-82
2023/12/06 12:52:40;;;;;;;3.95;2.67;;;7.10;99.90;;;;;;4958645;28;20027;-82